sensor_id;sensor_type;location;lat;lon;timestamp;pressure;altitude;pressure_sealevel;temperature;humidity
8075;BME280;4080;42.676;23.372;2023-12-20T00:01:17;95458.75;;;0.88;100.00
8075;BME280;4080;42.676;23.372;2023-12-20T00:03:44;95462.41;;;0.93;100.00
8075;BME280;4080;42.676;23.372;2023-12-20T00:06:13;95456.41;;;0.93;100.00
8075;BME280;4080;42.676;23.372;2023-12-20T00:08:40;95455.56;;;0.86;100.00
8075;BME280;4080;42.676;23.372;2023-12-20T00:11:07;95446.97;;;0.79;100.00
8075;BME280;4080;42.676;23.372;2023-12-20T00:13:34;95451.34;;;0.78;100.00
8075;BME280;4080;42.676;23.372;2023-12-20T00:16:02;95446.38;;;0.83;100.00
8075;BME280;4080;42.676;23.372;2023-12-20T00:18:29;95437.97;;;0.88;100.00
8075;BME280;4080;42.676;23.372;2023-12-20T00:20:56;95452.59;;;0.96;100.00
8075;BME280;4080;42.676;23.372;2023-12-20T00:23:23;95425.59;;;0.83;100.00
8075;BME280;4080;42.676;23.372;2023-12-20T00:25:50;95440.00;;;0.92;100.00
8075;BME280;4080;42.676;23.372;2023-12-20T00:28:17;95420.78;;;0.80;100.00
8075;BME280;4080;42.676;23.372;2023-12-20T00:30:44;95440.56;;;0.81;100.00
8075;BME280;4080;42.676;23.372;2023-12-20T00:33:12;95388.94;;;0.45;100.00
8075;BME280;4080;42.676;23.372;2023-12-20T00:35:39;95419.94;;;0.60;100.00
8075;BME280;4080;42.676;23.372;2023-12-20T00:38:25;95418.28;;;0.39;100.00
8075;BME280;4080;42.676;23.372;2023-12-20T00:40:51;95417.81;;;0.22;100.00
8075;BME280;4080;42.676;23.372;2023-12-20T00:43:18;95415.78;;;0.11;100.00
8075;BME280;4080;42.676;23.372;2023-12-20T00:45:45;95400.88;;;-0.15;100.00
8075;BME280;4080;42.676;23.372;2023-12-20T00:48:13;95413.44;;;-0.12;100.00
8075;BME280;4080;42.676;23.372;2023-12-20T00:50:40;95412.81;;;-0.20;100.00
8075;BME280;4080;42.676;23.372;2023-12-20T00:53:07;95403.75;;;-0.31;100.00
8075;BME280;4080;42.676;23.372;2023-12-20T00:55:34;95397.94;;;-0.40;100.00
8075;BME280;4080;42.676;23.372;2023-12-20T00:58:01;95397.47;;;-0.50;100.00
8075;BME280;4080;42.676;23.372;2023-12-20T01:00:28;95394.16;;;-0.65;100.00
8075;BME280;4080;42.676;23.372;2023-12-20T01:02:55;95397.78;;;-0.87;100.00
8075;BME280;4080;42.676;23.372;2023-12-20T01:05:23;95388.66;;;-1.05;100.00
8075;BME280;4080;42.676;23.372;2023-12-20T01:07:50;95384.25;;;-1.11;100.00
8075;BME280;4080;42.676;23.372;2023-12-20T01:10:17;95377.22;;;-1.17;100.00
8075;BME280;4080;42.676;23.372;2023-12-20T01:12:44;95380.53;;;-1.23;100.00
8075;BME280;4080;42.676;23.372;2023-12-20T01:15:11;95373.94;;;-1.26;100.00
8075;BME280;4080;42.676;23.372;2023-12-20T01:17:38;95374.13;;;-1.27;100.00
8075;BME280;4080;42.676;23.372;2023-12-20T01:20:05;95370.91;;;-1.29;100.00
8075;BME280;4080;42.676;23.372;2023-12-20T01:22:34;95369.75;;;-1.27;100.00
8075;BME280;4080;42.676;23.372;2023-12-20T01:25:01;95369.38;;;-1.23;100.00
8075;BME280;4080;42.676;23.372;2023-12-20T01:27:29;95359.59;;;-1.28;100.00
8075;BME280;4080;42.676;23.372;2023-12-20T01:29:56;95365.13;;;-1.31;100.00
8075;BME280;4080;42.676;23.372;2023-12-20T01:32:23;95355.53;;;-1.37;100.00
8075;BME280;4080;42.676;23.372;2023-12-20T01:34:50;95351.72;;;-1.41;100.00
8075;BME280;4080;42.676;23.372;2023-12-20T01:37:17;95358.72;;;-1.57;100.00
8075;BME280;4080;42.676;23.372;2023-12-20T01:39:45;95341.09;;;-1.68;100.00
8075;BME280;4080;42.676;23.372;2023-12-20T01:42:12;95338.81;;;-1.77;100.00
8075;BME280;4080;42.676;23.372;2023-12-20T01:44:39;95333.81;;;-1.79;100.00
8075;BME280;4080;42.676;23.372;2023-12-20T01:47:06;95339.63;;;-1.77;100.00
8075;BME280;4080;42.676;23.372;2023-12-20T01:49:33;95323.31;;;-1.77;100.00
8075;BME280;4080;42.676;23.372;2023-12-20T01:52:00;95300.91;;;-1.85;100.00
8075;BME280;4080;42.676;23.372;2023-12-20T01:54:27;95317.22;;;-1.70;100.00
8075;BME280;4080;42.676;23.372;2023-12-20T01:56:56;95316.84;;;-1.67;100.00
8075;BME280;4080;42.676;23.372;2023-12-20T01:59:23;95313.25;;;-1.66;100.00
8075;BME280;4080;42.676;23.372;2023-12-20T02:01:50;95312.47;;;-1.66;100.00
8075;BME280;4080;42.676;23.372;2023-12-20T02:04:17;95315.22;;;-1.68;100.00
8075;BME280;4080;42.676;23.372;2023-12-20T02:06:45;95321.38;;;-1.69;100.00
8075;BME280;4080;42.676;23.372;2023-12-20T02:09:13;95307.03;;;-1.71;100.00
8075;BME280;4080;42.676;23.372;2023-12-20T02:11:40;95312.03;;;-1.70;100.00
8075;BME280;4080;42.676;23.372;2023-12-20T02:14:09;95306.31;;;-1.65;100.00
8075;BME280;4080;42.676;23.372;2023-12-20T02:16:36;95300.19;;;-1.58;100.00
8075;BME280;4080;42.676;23.372;2023-12-20T02:19:04;95266.78;;;-1.80;100.00
8075;BME280;4080;42.676;23.372;2023-12-20T02:21:36;95301.00;;;-1.57;100.00
8075;BME280;4080;42.676;23.372;2023-12-20T02:24:03;95292.44;;;-1.58;100.00
8075;BME280;4080;42.676;23.372;2023-12-20T02:26:31;95285.75;;;-1.52;100.00
8075;BME280;4080;42.676;23.372;2023-12-20T02:28:59;95292.34;;;-1.49;100.00
8075;BME280;4080;42.676;23.372;2023-12-20T02:31:26;95289.56;;;-1.48;100.00
8075;BME280;4080;42.676;23.372;2023-12-20T02:33:53;95288.56;;;-1.47;100.00
8075;BME280;4080;42.676;23.372;2023-12-20T02:36:20;95254.38;;;-1.64;100.00
8075;BME280;4080;42.676;23.372;2023-12-20T02:38:48;95281.72;;;-1.33;100.00
8075;BME280;4080;42.676;23.372;2023-12-20T02:41:16;95274.38;;;-1.30;100.00
8075;BME280;4080;42.676;23.372;2023-12-20T02:43:43;95283.13;;;-1.31;100.00
8075;BME280;4080;42.676;23.372;2023-12-20T02:46:10;95275.53;;;-1.32;100.00
8075;BME280;4080;42.676;23.372;2023-12-20T02:48:38;95273.94;;;-1.33;100.00
8075;BME280;4080;42.676;23.372;2023-12-20T02:51:04;95270.94;;;-1.37;100.00
8075;BME280;4080;42.676;23.372;2023-12-20T02:53:31;95274.69;;;-1.39;100.00
8075;BME280;4080;42.676;23.372;2023-12-20T02:55:59;95272.91;;;-1.39;100.00
8075;BME280;4080;42.676;23.372;2023-12-20T02:58:26;95275.31;;;-1.37;100.00
8075;BME280;4080;42.676;23.372;2023-12-20T03:00:53;95274.56;;;-1.31;100.00
8075;BME280;4080;42.676;23.372;2023-12-20T03:03:20;95274.97;;;-1.28;100.00
8075;BME280;4080;42.676;23.372;2023-12-20T03:05:46;95267.41;;;-1.29;100.00
8075;BME280;4080;42.676;23.372;2023-12-20T03:08:13;95265.44;;;-1.27;100.00
8075;BME280;4080;42.676;23.372;2023-12-20T03:10:40;95261.63;;;-1.31;100.00
8075;BME280;4080;42.676;23.372;2023-12-20T03:13:09;95268.81;;;-1.27;100.00
8075;BME280;4080;42.676;23.372;2023-12-20T03:15:36;95261.75;;;-1.39;100.00
8075;BME280;4080;42.676;23.372;2023-12-20T03:18:03;95270.03;;;-1.50;100.00
8075;BME280;4080;42.676;23.372;2023-12-20T03:20:30;95273.09;;;-1.62;100.00
8075;BME280;4080;42.676;23.372;2023-12-20T03:22:59;95264.50;;;-1.69;100.00
8075;BME280;4080;42.676;23.372;2023-12-20T03:25:26;95251.13;;;-1.72;100.00
8075;BME280;4080;42.676;23.372;2023-12-20T03:27:53;95256.91;;;-1.70;100.00
8075;BME280;4080;42.676;23.372;2023-12-20T03:30:22;95256.69;;;-1.75;100.00
8075;BME280;4080;42.676;23.372;2023-12-20T03:32:48;95249.72;;;-1.75;100.00
8075;BME280;4080;42.676;23.372;2023-12-20T03:35:15;95251.94;;;-1.72;100.00
8075;BME280;4080;42.676;23.372;2023-12-20T03:37:42;95253.09;;;-1.74;100.00
8075;BME280;4080;42.676;23.372;2023-12-20T03:40:10;95256.88;;;-1.77;100.00
8075;BME280;4080;42.676;23.372;2023-12-20T03:42:37;95249.84;;;-1.83;100.00
8075;BME280;4080;42.676;23.372;2023-12-20T03:45:05;95240.13;;;-1.81;100.00
8075;BME280;4080;42.676;23.372;2023-12-20T03:47:33;95244.69;;;-1.83;100.00
8075;BME280;4080;42.676;23.372;2023-12-20T03:50:00;95248.16;;;-1.91;100.00
8075;BME280;4080;42.676;23.372;2023-12-20T03:52:27;95213.31;;;-2.16;100.00
8075;BME280;4080;42.676;23.372;2023-12-20T03:54:54;95239.75;;;-1.99;100.00
8075;BME280;4080;42.676;23.372;2023-12-20T03:57:21;95243.81;;;-1.90;100.00
8075;BME280;4080;42.676;23.372;2023-12-20T03:59:48;95236.56;;;-1.80;100.00
8075;BME280;4080;42.676;23.372;2023-12-20T04:02:15;95237.22;;;-1.71;100.00
8075;BME280;4080;42.676;23.372;2023-12-20T04:04:44;95212.72;;;-1.75;100.00
8075;BME280;4080;42.676;23.372;2023-12-20T04:07:11;95230.25;;;-1.71;100.00
8075;BME280;4080;42.676;23.372;2023-12-20T04:09:38;95227.88;;;-1.72;100.00
8075;BME280;4080;42.676;23.372;2023-12-20T04:12:07;95241.84;;;-1.67;100.00
8075;BME280;4080;42.676;23.372;2023-12-20T04:14:34;95228.16;;;-1.61;100.00
8075;BME280;4080;42.676;23.372;2023-12-20T04:17:01;95218.03;;;-1.56;100.00
8075;BME280;4080;42.676;23.372;2023-12-20T04:19:28;95223.47;;;-1.50;100.00
8075;BME280;4080;42.676;23.372;2023-12-20T04:21:56;95223.72;;;-1.45;100.00
8075;BME280;4080;42.676;23.372;2023-12-20T04:24:23;95219.53;;;-1.46;100.00
8075;BME280;4080;42.676;23.372;2023-12-20T04:26:50;95224.69;;;-1.46;100.00
8075;BME280;4080;42.676;23.372;2023-12-20T04:29:17;95218.16;;;-1.42;100.00
8075;BME280;4080;42.676;23.372;2023-12-20T04:31:44;95218.72;;;-1.47;100.00
8075;BME280;4080;42.676;23.372;2023-12-20T04:34:10;95211.34;;;-1.50;100.00
8075;BME280;4080;42.676;23.372;2023-12-20T04:36:37;95203.56;;;-1.50;100.00
8075;BME280;4080;42.676;23.372;2023-12-20T04:39:06;95204.56;;;-1.51;100.00
8075;BME280;4080;42.676;23.372;2023-12-20T04:41:33;95192.94;;;-1.62;100.00
8075;BME280;4080;42.676;23.372;2023-12-20T04:44:00;95198.34;;;-1.57;100.00
8075;BME280;4080;42.676;23.372;2023-12-20T04:46:27;95198.72;;;-1.60;100.00
8075;BME280;4080;42.676;23.372;2023-12-20T04:48:54;95204.25;;;-1.63;100.00
8075;BME280;4080;42.676;23.372;2023-12-20T04:51:22;95201.81;;;-1.71;100.00
8075;BME280;4080;42.676;23.372;2023-12-20T04:53:49;95201.38;;;-1.74;100.00
8075;BME280;4080;42.676;23.372;2023-12-20T04:56:17;95189.63;;;-1.77;100.00
8075;BME280;4080;42.676;23.372;2023-12-20T04:58:44;95186.16;;;-1.84;100.00
8075;BME280;4080;42.676;23.372;2023-12-20T05:01:11;95175.84;;;-1.84;100.00
8075;BME280;4080;42.676;23.372;2023-12-20T05:03:38;95193.41;;;-1.79;100.00
8075;BME280;4080;42.676;23.372;2023-12-20T05:06:05;95190.63;;;-1.78;100.00
8075;BME280;4080;42.676;23.372;2023-12-20T05:08:32;95193.81;;;-1.76;100.00
8075;BME280;4080;42.676;23.372;2023-12-20T05:10:59;95189.25;;;-1.74;100.00
8075;BME280;4080;42.676;23.372;2023-12-20T05:13:27;95191.47;;;-1.71;100.00
8075;BME280;4080;42.676;23.372;2023-12-20T05:15:54;95182.91;;;-1.71;100.00
8075;BME280;4080;42.676;23.372;2023-12-20T05:18:21;95153.91;;;-1.88;100.00
8075;BME280;4080;42.676;23.372;2023-12-20T05:20:48;95173.59;;;-1.66;100.00
8075;BME280;4080;42.676;23.372;2023-12-20T05:23:15;95178.63;;;-1.58;100.00
8075;BME280;4080;42.676;23.372;2023-12-20T05:25:43;95176.97;;;-1.37;100.00
8075;BME280;4080;42.676;23.372;2023-12-20T05:28:09;95169.97;;;-1.43;100.00
8075;BME280;4080;42.676;23.372;2023-12-20T05:30:38;95145.00;;;-1.58;100.00
8075;BME280;4080;42.676;23.372;2023-12-20T05:33:05;95166.41;;;-1.42;100.00
8075;BME280;4080;42.676;23.372;2023-12-20T05:35:31;95157.00;;;-1.50;100.00
8075;BME280;4080;42.676;23.372;2023-12-20T05:37:58;95161.38;;;-1.50;100.00
8075;BME280;4080;42.676;23.372;2023-12-20T05:40:25;95166.97;;;-1.47;100.00
8075;BME280;4080;42.676;23.372;2023-12-20T05:42:52;95161.81;;;-1.47;100.00
8075;BME280;4080;42.676;23.372;2023-12-20T05:45:19;95156.03;;;-1.49;100.00
8075;BME280;4080;42.676;23.372;2023-12-20T05:47:47;95167.16;;;-1.48;100.00
8075;BME280;4080;42.676;23.372;2023-12-20T05:50:14;95153.84;;;-1.45;100.00
8075;BME280;4080;42.676;23.372;2023-12-20T05:52:41;95158.66;;;-1.42;100.00
8075;BME280;4080;42.676;23.372;2023-12-20T05:55:08;95161.84;;;-1.40;100.00
8075;BME280;4080;42.676;23.372;2023-12-20T05:57:35;95146.72;;;-1.37;100.00
8075;BME280;4080;42.676;23.372;2023-12-20T06:00:02;95147.34;;;-1.35;100.00
8075;BME280;4080;42.676;23.372;2023-12-20T06:02:29;95149.53;;;-1.32;100.00
8075;BME280;4080;42.676;23.372;2023-12-20T06:04:58;95146.34;;;-1.34;100.00
8075;BME280;4080;42.676;23.372;2023-12-20T06:07:24;95141.78;;;-1.32;100.00
8075;BME280;4080;42.676;23.372;2023-12-20T06:09:51;95146.38;;;-1.27;100.00
8075;BME280;4080;42.676;23.372;2023-12-20T06:12:18;95100.75;;;-1.41;100.00
8075;BME280;4080;42.676;23.372;2023-12-20T06:14:45;95143.50;;;-1.11;100.00
8075;BME280;4080;42.676;23.372;2023-12-20T06:17:12;95145.47;;;-1.13;100.00
8075;BME280;4080;42.676;23.372;2023-12-20T06:19:39;95152.09;;;-1.04;100.00
8075;BME280;4080;42.676;23.372;2023-12-20T06:22:09;95156.88;;;-1.01;100.00
8075;BME280;4080;42.676;23.372;2023-12-20T06:24:36;95124.50;;;-1.25;100.00
8075;BME280;4080;42.676;23.372;2023-12-20T06:27:03;95150.50;;;-1.05;100.00
8075;BME280;4080;42.676;23.372;2023-12-20T06:29:30;95144.88;;;-1.15;100.00
8075;BME280;4080;42.676;23.372;2023-12-20T06:31:57;95144.50;;;-1.12;100.00
8075;BME280;4080;42.676;23.372;2023-12-20T06:34:24;95156.03;;;-1.14;100.00
8075;BME280;4080;42.676;23.372;2023-12-20T06:36:51;95149.63;;;-1.18;100.00
8075;BME280;4080;42.676;23.372;2023-12-20T06:39:18;95153.47;;;-1.08;100.00
8075;BME280;4080;42.676;23.372;2023-12-20T06:41:45;95147.91;;;-1.05;100.00
8075;BME280;4080;42.676;23.372;2023-12-20T06:44:12;95134.19;;;-0.99;100.00
8075;BME280;4080;42.676;23.372;2023-12-20T06:46:39;95139.38;;;-0.92;100.00
8075;BME280;4080;42.676;23.372;2023-12-20T06:49:06;95132.00;;;-0.95;100.00
8075;BME280;4080;42.676;23.372;2023-12-20T06:51:32;95129.22;;;-0.94;100.00
8075;BME280;4080;42.676;23.372;2023-12-20T06:53:59;95119.66;;;-0.93;100.00
8075;BME280;4080;42.676;23.372;2023-12-20T06:56:29;95119.50;;;-0.85;100.00
8075;BME280;4080;42.676;23.372;2023-12-20T06:58:56;95123.03;;;-0.99;100.00
8075;BME280;4080;42.676;23.372;2023-12-20T07:01:23;95099.06;;;-1.21;100.00
8075;BME280;4080;42.676;23.372;2023-12-20T07:03:50;95119.84;;;-0.95;100.00
8075;BME280;4080;42.676;23.372;2023-12-20T07:06:17;95114.53;;;-0.86;100.00
8075;BME280;4080;42.676;23.372;2023-12-20T07:08:44;95120.94;;;-0.76;100.00
8075;BME280;4080;42.676;23.372;2023-12-20T07:11:11;95113.97;;;-0.75;100.00
8075;BME280;4080;42.676;23.372;2023-12-20T07:13:40;95115.63;;;-0.54;100.00
8075;BME280;4080;42.676;23.372;2023-12-20T07:16:07;95107.06;;;-0.42;100.00
8075;BME280;4080;42.676;23.372;2023-12-20T07:18:34;95108.50;;;-0.26;100.00
8075;BME280;4080;42.676;23.372;2023-12-20T07:21:00;95107.28;;;-0.17;100.00
8075;BME280;4080;42.676;23.372;2023-12-20T07:23:27;95104.31;;;-0.14;100.00
8075;BME280;4080;42.676;23.372;2023-12-20T07:25:54;95111.88;;;-0.12;100.00
8075;BME280;4080;42.676;23.372;2023-12-20T07:28:21;95106.69;;;-0.12;100.00
8075;BME280;4080;42.676;23.372;2023-12-20T07:30:50;95098.91;;;-0.06;100.00
8075;BME280;4080;42.676;23.372;2023-12-20T07:33:17;95096.13;;;-0.17;100.00
8075;BME280;4080;42.676;23.372;2023-12-20T07:35:43;95105.31;;;-0.21;100.00
8075;BME280;4080;42.676;23.372;2023-12-20T07:38:11;95100.91;;;-0.21;100.00
8075;BME280;4080;42.676;23.372;2023-12-20T07:40:38;95105.91;;;-0.19;100.00
8075;BME280;4080;42.676;23.372;2023-12-20T07:43:05;95098.31;;;-0.14;100.00
8075;BME280;4080;42.676;23.372;2023-12-20T07:45:32;95101.72;;;-0.07;100.00
8075;BME280;4080;42.676;23.372;2023-12-20T07:48:00;95102.91;;;-0.03;100.00
8075;BME280;4080;42.676;23.372;2023-12-20T07:50:27;95103.50;;;-0.01;100.00
8075;BME280;4080;42.676;23.372;2023-12-20T07:52:54;95092.53;;;-0.03;100.00
8075;BME280;4080;42.676;23.372;2023-12-20T07:55:21;95063.63;;;-0.13;100.00
8075;BME280;4080;42.676;23.372;2023-12-20T07:57:48;95078.38;;;0.06;100.00
8075;BME280;4080;42.676;23.372;2023-12-20T08:00:16;95083.97;;;0.16;100.00
8075;BME280;4080;42.676;23.372;2023-12-20T08:02:43;95092.34;;;0.18;100.00
8075;BME280;4080;42.676;23.372;2023-12-20T08:05:11;95088.13;;;0.24;100.00
8075;BME280;4080;42.676;23.372;2023-12-20T08:09:11;95090.69;;;0.50;100.00
8075;BME280;4080;42.676;23.372;2023-12-20T08:11:38;95081.69;;;0.66;100.00
8075;BME280;4080;42.676;23.372;2023-12-20T08:14:05;95076.69;;;0.65;100.00
8075;BME280;4080;42.676;23.372;2023-12-20T08:16:32;95080.06;;;0.72;100.00
8075;BME280;4080;42.676;23.372;2023-12-20T08:18:59;95068.09;;;0.71;100.00
8075;BME280;4080;42.676;23.372;2023-12-20T08:21:26;95076.44;;;0.79;100.00
8075;BME280;4080;42.676;23.372;2023-12-20T08:23:53;95078.22;;;0.85;100.00
8075;BME280;4080;42.676;23.372;2023-12-20T08:26:21;95065.06;;;0.80;100.00
8075;BME280;4080;42.676;23.372;2023-12-20T08:28:49;95033.78;;;0.62;100.00
8075;BME280;4080;42.676;23.372;2023-12-20T08:31:16;95071.00;;;0.94;100.00
8075;BME280;4080;42.676;23.372;2023-12-20T08:33:43;95066.38;;;1.03;100.00
8075;BME280;4080;42.676;23.372;2023-12-20T08:36:11;95058.75;;;1.08;100.00
8075;BME280;4080;42.676;23.372;2023-12-20T08:38:38;95059.59;;;1.02;100.00
8075;BME280;4080;42.676;23.372;2023-12-20T08:41:05;95051.97;;;1.07;100.00
8075;BME280;4080;42.676;23.372;2023-12-20T08:43:34;95054.56;;;1.07;100.00
8075;BME280;4080;42.676;23.372;2023-12-20T08:46:01;95038.59;;;1.03;100.00
8075;BME280;4080;42.676;23.372;2023-12-20T08:48:28;94981.47;;;0.52;100.00
8075;BME280;4080;42.676;23.372;2023-12-20T08:50:55;95026.53;;;0.77;100.00
8075;BME280;4080;42.676;23.372;2023-12-20T08:53:22;95040.06;;;0.86;100.00
8075;BME280;4080;42.676;23.372;2023-12-20T08:55:50;95037.66;;;0.84;100.00
8075;BME280;4080;42.676;23.372;2023-12-20T08:58:17;95044.47;;;0.85;100.00
8075;BME280;4080;42.676;23.372;2023-12-20T09:00:45;94977.47;;;0.56;100.00
8075;BME280;4080;42.676;23.372;2023-12-20T09:03:12;95029.66;;;0.86;100.00
8075;BME280;4080;42.676;23.372;2023-12-20T09:05:39;95005.69;;;0.90;100.00
8075;BME280;4080;42.676;23.372;2023-12-20T09:08:06;95010.22;;;1.02;100.00
8075;BME280;4080;42.676;23.372;2023-12-20T09:10:35;94984.88;;;0.97;100.00
8075;BME280;4080;42.676;23.372;2023-12-20T09:13:03;94985.19;;;1.14;100.00
8075;BME280;4080;42.676;23.372;2023-12-20T09:15:30;94985.19;;;1.14;100.00
8075;BME280;4080;42.676;23.372;2023-12-20T09:18:01;94967.25;;;1.06;100.00
8075;BME280;4080;42.676;23.372;2023-12-20T09:20:29;94965.41;;;1.13;100.00
8075;BME280;4080;42.676;23.372;2023-12-20T09:22:55;94965.56;;;1.18;100.00
8075;BME280;4080;42.676;23.372;2023-12-20T09:25:23;94953.16;;;1.20;100.00
8075;BME280;4080;42.676;23.372;2023-12-20T09:27:51;94965.53;;;1.24;100.00
8075;BME280;4080;42.676;23.372;2023-12-20T09:30:18;94962.72;;;1.26;100.00
8075;BME280;4080;42.676;23.372;2023-12-20T09:32:45;94943.97;;;1.24;100.00
8075;BME280;4080;42.676;23.372;2023-12-20T09:35:14;94948.16;;;1.25;100.00
8075;BME280;4080;42.676;23.372;2023-12-20T09:37:41;94942.38;;;1.23;100.00
8075;BME280;4080;42.676;23.372;2023-12-20T09:40:12;94939.50;;;1.31;100.00
8075;BME280;4080;42.676;23.372;2023-12-20T09:42:48;94889.06;;;1.14;100.00
8075;BME280;4080;42.676;23.372;2023-12-20T09:45:20;94891.81;;;1.19;100.00
8075;BME280;4080;42.676;23.372;2023-12-20T09:47:49;94916.69;;;1.33;100.00
8075;BME280;4080;42.676;23.372;2023-12-20T09:50:19;94918.59;;;1.44;100.00
8075;BME280;4080;42.676;23.372;2023-12-20T09:52:49;94882.47;;;1.36;100.00
8075;BME280;4080;42.676;23.372;2023-12-20T09:55:18;94905.78;;;1.68;100.00
8075;BME280;4080;42.676;23.372;2023-12-20T09:57:45;94902.19;;;1.69;100.00
8075;BME280;4080;42.676;23.372;2023-12-20T10:00:13;94903.84;;;1.81;100.00
8075;BME280;4080;42.676;23.372;2023-12-20T10:02:45;94905.69;;;1.99;100.00
8075;BME280;4080;42.676;23.372;2023-12-20T10:05:17;94883.34;;;2.10;100.00
8075;BME280;4080;42.676;23.372;2023-12-20T10:07:46;94888.09;;;2.31;100.00
8075;BME280;4080;42.676;23.372;2023-12-20T10:10:13;94874.28;;;2.31;100.00
8075;BME280;4080;42.676;23.372;2023-12-20T10:12:40;94876.78;;;2.56;100.00
8075;BME280;4080;42.676;23.372;2023-12-20T10:15:06;94863.34;;;2.70;100.00
8075;BME280;4080;42.676;23.372;2023-12-20T10:17:36;94863.19;;;2.95;100.00
8075;BME280;4080;42.676;23.372;2023-12-20T10:20:04;94871.84;;;3.07;100.00
8075;BME280;4080;42.676;23.372;2023-12-20T10:22:37;94808.41;;;3.37;100.00
8075;BME280;4080;42.676;23.372;2023-12-20T10:25:05;94866.09;;;4.39;100.00
8075;BME280;4080;42.676;23.372;2023-12-20T10:27:33;94863.47;;;4.96;100.00
8075;BME280;4080;42.676;23.372;2023-12-20T10:30:00;94814.34;;;5.32;100.00
8075;BME280;4080;42.676;23.372;2023-12-20T10:32:27;94827.28;;;5.94;100.00
8075;BME280;4080;42.676;23.372;2023-12-20T10:34:55;94846.63;;;6.36;100.00
8075;BME280;4080;42.676;23.372;2023-12-20T10:37:22;94834.78;;;6.29;100.00
8075;BME280;4080;42.676;23.372;2023-12-20T10:39:51;94822.97;;;6.26;100.00
8075;BME280;4080;42.676;23.372;2023-12-20T10:42:22;94859.97;;;6.57;100.00
8075;BME280;4080;42.676;23.372;2023-12-20T10:44:49;94864.09;;;6.74;100.00
8075;BME280;4080;42.676;23.372;2023-12-20T10:47:17;94839.84;;;6.89;100.00
8075;BME280;4080;42.676;23.372;2023-12-20T10:49:44;94838.75;;;7.12;100.00
8075;BME280;4080;42.676;23.372;2023-12-20T10:52:12;94837.53;;;7.25;100.00
8075;BME280;4080;42.676;23.372;2023-12-20T10:54:39;94840.91;;;7.20;100.00
8075;BME280;4080;42.676;23.372;2023-12-20T10:57:08;94805.31;;;6.70;100.00
8075;BME280;4080;42.676;23.372;2023-12-20T10:59:36;94831.75;;;6.64;100.00
8075;BME280;4080;42.676;23.372;2023-12-20T11:02:04;94817.56;;;6.38;100.00
8075;BME280;4080;42.676;23.372;2023-12-20T11:04:38;94794.59;;;5.96;100.00
8075;BME280;4080;42.676;23.372;2023-12-20T11:07:17;94797.81;;;6.52;100.00
8075;BME280;4080;42.676;23.372;2023-12-20T11:09:59;94780.16;;;7.01;100.00
8075;BME280;4080;42.676;23.372;2023-12-20T11:12:35;94807.16;;;7.71;100.00
8075;BME280;4080;42.676;23.372;2023-12-20T11:15:06;94807.78;;;7.93;100.00
8075;BME280;4080;42.676;23.372;2023-12-20T11:17:34;94807.34;;;8.12;100.00
8075;BME280;4080;42.676;23.372;2023-12-20T11:20:09;94798.81;;;8.42;100.00
8075;BME280;4080;42.676;23.372;2023-12-20T11:22:40;94797.25;;;8.51;100.00
8075;BME280;4080;42.676;23.372;2023-12-20T11:25:18;94788.59;;;8.55;100.00
8075;BME280;4080;42.676;23.372;2023-12-20T11:28:06;94774.72;;;8.85;100.00
8075;BME280;4080;42.676;23.372;2023-12-20T11:30:41;94759.19;;;9.09;100.00
8075;BME280;4080;42.676;23.372;2023-12-20T11:33:08;94760.47;;;9.57;100.00
8075;BME280;4080;42.676;23.372;2023-12-20T11:35:35;94751.41;;;9.89;100.00
8075;BME280;4080;42.676;23.372;2023-12-20T11:38:02;94749.88;;;9.73;100.00
8075;BME280;4080;42.676;23.372;2023-12-20T11:40:33;94700.78;;;8.46;100.00
8075;BME280;4080;42.676;23.372;2023-12-20T11:43:03;94697.28;;;7.42;100.00
8075;BME280;4080;42.676;23.372;2023-12-20T11:45:31;94682.34;;;6.64;100.00
8075;BME280;4080;42.676;23.372;2023-12-20T11:47:57;94726.13;;;6.36;100.00
8075;BME280;4080;42.676;23.372;2023-12-20T11:50:25;94704.03;;;5.78;100.00
8075;BME280;4080;42.676;23.372;2023-12-20T11:52:52;94712.00;;;5.45;100.00
8075;BME280;4080;42.676;23.372;2023-12-20T11:55:20;94701.38;;;5.13;100.00
8075;BME280;4080;42.676;23.372;2023-12-20T11:57:48;94675.94;;;4.70;100.00
8075;BME280;4080;42.676;23.372;2023-12-20T12:00:17;94688.84;;;4.43;100.00
8075;BME280;4080;42.676;23.372;2023-12-20T12:02:55;94688.81;;;4.26;100.00
8075;BME280;4080;42.676;23.372;2023-12-20T12:05:22;94640.16;;;4.03;100.00
8075;BME280;4080;42.676;23.372;2023-12-20T12:07:49;94671.56;;;4.08;100.00
8075;BME280;4080;42.676;23.372;2023-12-20T12:10:16;94664.22;;;3.93;100.00
8075;BME280;4080;42.676;23.372;2023-12-20T12:12:42;94650.88;;;3.90;100.00
8075;BME280;4080;42.676;23.372;2023-12-20T12:15:10;94647.44;;;4.01;100.00
8075;BME280;4080;42.676;23.372;2023-12-20T12:17:38;94649.81;;;4.02;100.00
8075;BME280;4080;42.676;23.372;2023-12-20T12:20:06;94632.69;;;3.95;100.00
8075;BME280;4080;42.676;23.372;2023-12-20T12:22:34;94633.34;;;4.19;100.00
8075;BME280;4080;42.676;23.372;2023-12-20T12:25:10;94632.16;;;4.26;100.00
8075;BME280;4080;42.676;23.372;2023-12-20T12:27:38;94634.00;;;4.43;100.00
8075;BME280;4080;42.676;23.372;2023-12-20T12:30:06;94624.97;;;4.50;100.00
8075;BME280;4080;42.676;23.372;2023-12-20T12:32:33;94620.06;;;4.54;100.00
8075;BME280;4080;42.676;23.372;2023-12-20T12:35:03;94632.06;;;4.72;100.00
8075;BME280;4080;42.676;23.372;2023-12-20T12:37:33;94631.19;;;4.83;100.00
8075;BME280;4080;42.676;23.372;2023-12-20T12:40:00;94575.09;;;4.52;100.00
8075;BME280;4080;42.676;23.372;2023-12-20T12:42:27;94635.53;;;4.94;100.00
8075;BME280;4080;42.676;23.372;2023-12-20T12:44:55;94627.94;;;4.92;100.00
8075;BME280;4080;42.676;23.372;2023-12-20T12:47:22;94623.44;;;4.71;100.00
8075;BME280;4080;42.676;23.372;2023-12-20T12:49:49;94623.63;;;4.48;100.00
8075;BME280;4080;42.676;23.372;2023-12-20T12:52:19;94616.41;;;4.21;100.00
8075;BME280;4080;42.676;23.372;2023-12-20T12:54:46;94616.44;;;4.04;100.00
8075;BME280;4080;42.676;23.372;2023-12-20T12:57:14;94591.69;;;3.62;100.00
8075;BME280;4080;42.676;23.372;2023-12-20T12:59:41;94610.78;;;3.51;100.00
8075;BME280;4080;42.676;23.372;2023-12-20T13:02:09;94612.69;;;3.27;100.00
8075;BME280;4080;42.676;23.372;2023-12-20T13:04:36;94610.69;;;3.17;100.00
8075;BME280;4080;42.676;23.372;2023-12-20T13:07:03;94605.50;;;2.94;100.00
8075;BME280;4080;42.676;23.372;2023-12-20T13:09:31;94574.66;;;2.62;100.00